Погода Ряскана 2 недели

Ростовская область, Россия

21 мая-03 июня
  • 21мая
    Сегодня
    +12°
    +27°
    Небольшая облачность
    ВремяПогодаТемператураВлажностьДавлениеВетер, м/сВероятность осадков
    00:00Ясно и безоблачно+14°C71 %762 мм2.1 м/с2 %
    03:00Ясно и безоблачно+14°C71 %762 мм2.4 м/с2 %
    06:00Ясно и безоблачно+14°C69 %763 мм1.5 м/с2 %
    09:00Ясно и безоблачно+22°C44 %763 мм0.7 м/с2 %
    12:00Практически безоблачно+26°C28 %763 мм3.0 м/с2 %
    15:00Небольшая облачность+27°C25 %762 мм3.3 м/с2 %
    18:00Ясно и безоблачно+25°C31 %762 мм3.1 м/с2 %
    21:00Ясно и безоблачно+17°C50 %762 мм2.8 м/с2 %
  • 22мая
    Среда
    +12°
    +27°
    Ясно и безоблачно
    ВремяПогодаТемператураВлажностьДавлениеВетер, м/сВероятность осадков
    00:00Ясно и безоблачно+14°C59 %762 мм2.6 м/с2 %
    03:00Ясно и безоблачно+13°C58 %762 мм2.6 м/с2 %
    06:00Ясно и безоблачно+14°C54 %762 мм2.4 м/с2 %
    09:00Ясно и безоблачно+22°C40 %762 мм2.8 м/с2 %
    12:00Ясно и безоблачно+26°C28 %762 мм4.2 м/с2 %
    15:00Ясно и безоблачно+27°C27 %761 мм3.6 м/с2 %
    18:00Ясно и безоблачно+25°C33 %760 мм2.0 м/с2 %
    21:00Ясно и безоблачно+17°C50 %760 мм2.5 м/с2 %
  • 23мая
    Четверг
    +15°
    +27°
    Ясно и безоблачно
    ВремяПогодаТемператураВлажностьДавлениеВетер, м/сВероятность осадков
    00:00Ясно и безоблачно+16°C47 %760 мм3.3 м/с2 %
    03:00Ясно и безоблачно+14°C63 %760 мм2.7 м/с2 %
    06:00Ясно и безоблачно+14°C67 %760 мм2.9 м/с2 %
    09:00Ясно и безоблачно+21°C48 %761 мм3.2 м/с2 %
    12:00Ясно и безоблачно+25°C29 %760 мм4.3 м/с2 %
    15:00Ясно и безоблачно+27°C24 %759 мм3.8 м/с2 %
    18:00Ясно и безоблачно+25°C28 %759 мм3.0 м/с2 %
    21:00Ясно и безоблачно+18°C39 %759 мм3.1 м/с2 %
  • 24мая
    Пятница
    +11°
    +26°
    Ясно и безоблачно
    ВремяПогодаТемператураВлажностьДавлениеВетер, м/сВероятность осадков
    00:00Ясно и безоблачно+18°C45 %759 мм5.0 м/с2 %
    03:00Ясно и безоблачно+16°C56 %760 мм5.4 м/с2 %
    06:00Ясно и безоблачно+16°C70 %761 мм6.0 м/с2 %
    09:00Ясно и безоблачно+21°C45 %763 мм6.9 м/с2 %
    12:00Ясно и безоблачно+24°C36 %763 мм7.7 м/с2 %
    15:00Ясно и безоблачно+26°C31 %763 мм7.9 м/с4 %
    18:00Ясно и безоблачно+23°C29 %764 мм7.5 м/с3 %
    21:00Ясно и безоблачно+19°C21 %765 мм7.1 м/с2 %
  • 25мая
    Суббота
    +14°
    +24°
    Облачно с прояснениями
    ВремяПогодаТемператураВлажностьДавлениеВетер, м/сВероятность осадков
    00:00Ясно и безоблачно+15°C25 %766 мм7.0 м/с2 %
    03:00Ясно и безоблачно+13°C29 %767 мм6.8 м/с2 %
    06:00Ясно и безоблачно+12°C35 %767 мм6.1 м/с2 %
    09:00Ясно и безоблачно+17°C30 %768 мм7.6 м/с2 %
    12:00Ясно и безоблачно+21°C20 %767 мм7.7 м/с2 %
    15:00Облачно с прояснениями+23°C19 %766 мм7.9 м/с2 %
    18:00Облачно с прояснениями+21°C21 %765 мм6.6 м/с2 %
    21:00Ясно и безоблачно+19°C21 %766 мм6.2 м/с2 %
Мы используем cookies
Соглашаюсь